メインページ
METAR-TAF:

METAR-TAF

空港 :

仁川国際空港, 大韓民国

緯度: 37-28N, 経度: 126-27E, 海抜: 7m

現時点の気象観測

当レポートは28分前の19:00(UTC)に作成
北東の風 2kt
気温 21°C
湿度 60%
気圧 1015 hPa
視程10km以上
1,500メートル以下は雲なし、積乱雲なし

METAR: RKSI 181900Z 05002KT CAVOK 21/13 Q1015 NOSIG

時間: 04:28 (19:28 UTC)

予報

当レポートは2時間28分前の17:00(UTC)に作成
予報は18日の 18時(UTC)から 19日の 24時(UTC)まで有効
北東の風 5kt
視程10km以上
高度3000ftの雲はほとんどない
高度12000ftの千切れ雲あり
19日の 01時(UTC)から 19日の 02時(UTC)まで徐々に
南/南東の風 6kt
19日の 04時(UTC)から 19日の 05時(UTC)まで徐々に
西/北西の風 6kt
19日の 15時(UTC)から 19日の 16時(UTC)まで徐々に
東/北東の風 6kt
視程: 6000m
高度1000ftの雲はほとんどない
高度3000ftの千切れ雲あり
高度8000ftの曇り
19日の 18時(UTC)から 19日の 19時(UTC)まで徐々に
小雨

TAF: RKSI 181700Z 1818/1924 05005KT 9999 FEW030 BKN120 TN18/1821Z TX24/1906Z TN18/1921Z BECMG 1901/1902 15006KT BECMG 1904/1905 30006KT BECMG 1915/1916 07006KT 6000 FEW010 BKN030 OVC080 BECMG 1918/1919 -RA

4,000以上の空港の気象観測と天気予報(METAR報とTAF報)

利用可能な観測所は地図上に黄色い丸と赤い丸で示す。

丸の上にカーソルを重ねると観測所名を参照できる。

次にクリックすると気象観測と天気予報を参照できる。

マップの切り替え:黒色「×」印の緑ボタンをクリックして拡大、「-」印の緑ボタンをクリックして縮小、緑色の三角印をクリックして隣りの地図に切り替え


METAR-TAF: